Aérodrome :
LOGIN :

S'inscrire | Disclaimer

   EN    FR    IT 

 










Légende :    VFR   VFR Marginal   IFR   IFR Intensif   IFR Très Intensif
Visi : 
Plafond : 
>= 8 km
>= 3000ft
5 à 8 km
1000 à 3000 ft
1500m à 5 km
500 à 1000 ft
800 à 1500m
200 à 500 ft
< 800m
< 200 ft
Symboles :   Orages  Brouillard  Fortes neiges  Fortes précipitations  Vent > 20 kt
SIGMETs :   Divers  Orages  Givrage  Turbulence  Onde Orograph.  Cendres Volcan.






- Altitude de l'aérodrome : 1416 ft
- Code IATA : ZRH


LSZH - Zurich

DERNIER METAR :
  • 200620Z 32003KT 9000 FEW012 SCT015 OVC028 03/01 Q1015 NOSIG

METARs EXPIRÉS :
  • 200550Z 33004KT 9000 FEW015 OVC030 03/01 Q1015 NOSIG
  • 200520Z VRB02KT 9999 FEW015 OVC030 03/01 Q1015 NOSIG
  • 200450Z VRB01KT 9999 FEW023 OVC030 04/01 Q1015 NOSIG
  • 200420Z VRB02KT 9999 FEW027 OVC030 04/01 Q1015 NOSIG

TAF TAF LSZH
Valide du 20 à 06h jusqu'au 21 à 12h UTC


200525Z 2006/2112 VRB03KT 9999 FEW025 BKN030 TX05/2014Z TN03/2023Z TN02/2106Z
BECMG 2008/2010 04005KT
PROB30 2015/2019 SCT015
BECMG 2015/2018 VRB03KT
BECMG 2019/2022 BKN014
PROB40 2100/2109 4500 BR BKN008
ATIS : +41 43 816 2295 (DEP) +41 43 816 2294 (ARR)



MET'MAP, la Météo Aéronautique d'un coup d'oeil ! - Copyright ORBIFLY Décembre 2007 - Disclaimer

ORBIFLY MET'MAP TEAM :

Programmation & Développement : Alexandra Zaïnal
Conception & Développement : Baudouin d'Aumeries
Co-Programmation & Développement : Marc-Olivier Méhu
Soutien technique & logistique : Manuel Goepfert

Contact : metmap@orbifly.com




SOURCES & CREDITS :

   NOAA